Time;durP1;ratioP1;P1;durP2;ratioP2;P2;SDS_P1;SDS_P2;PMS_P1;PMS_P2;Temp;Humidity;BMP_temperature;BMP_pressure;BME280_temperature;BME280_humidity;BME280_pressure;Samples;Min_cycle;Max_cycle;Signal;HPM_P1;HPM_P2
2020/12/03 00:00:34;;;;;;;11.30;6.37;;;6.30;99.90;;;;;;5054627;28;20207;-73
2020/12/03 00:03:04;;;;;;;14.43;6.30;;;6.20;99.90;;;;;;5049634;28;20191;-73
2020/12/03 00:05:31;;;;;;;11.40;6.40;;;6.30;99.90;;;;;;5049686;28;20222;-73
2020/12/03 00:07:58;;;;;;;12.43;7.10;;;6.30;99.90;;;;;;5045884;28;20237;-73
2020/12/03 00:10:27;;;;;;;16.27;7.40;;;6.30;99.90;;;;;;5044622;28;20207;-73
2020/12/03 00:13:03;;;;;;;19.17;7.33;;;6.30;99.90;;;;;;5047965;28;20195;-73
2020/12/03 00:15:30;;;;;;;19.33;7.07;;;6.20;99.90;;;;;;5047631;28;20191;-73
2020/12/03 00:17:57;;;;;;;11.00;6.53;;;6.30;99.90;;;;;;5047529;28;20203;-73
2020/12/03 00:20:24;;;;;;;14.80;7.40;;;6.20;99.90;;;;;;5048601;28;20207;-73
2020/12/03 00:22:51;;;;;;;11.00;6.43;;;6.30;99.90;;;;;;5047459;28;20211;-73
2020/12/03 00:25:17;;;;;;;18.17;7.90;;;6.30;99.90;;;;;;5047943;28;20261;-73
2020/12/03 00:27:51;;;;;;;17.00;8.17;;;6.30;99.90;;;;;;5046142;28;20198;-72
2020/12/03 00:30:19;;;;;;;15.17;7.27;;;6.30;99.90;;;;;;5045789;28;20191;-72
2020/12/03 00:32:47;;;;;;;12.97;7.73;;;6.30;99.90;;;;;;5046349;28;20248;-73
2020/12/03 00:35:14;;;;;;;16.67;8.33;;;6.30;99.90;;;;;;5045942;28;22391;-72
2020/12/03 00:37:41;;;;;;;11.90;7.80;;;6.30;99.90;;;;;;5049678;28;20629;-73
2020/12/03 00:40:08;;;;;;;16.87;8.23;;;6.30;99.90;;;;;;5047773;28;20199;-73
2020/12/03 00:42:35;;;;;;;14.30;8.80;;;6.40;99.90;;;;;;5049905;28;20226;-73
2020/12/03 00:45:03;;;;;;;16.17;8.53;;;6.40;99.90;;;;;;5047133;28;20238;-74
2020/12/03 00:47:30;;;;;;;15.57;8.83;;;6.40;99.90;;;;;;5047258;28;20199;-73
2020/12/03 00:49:57;;;;;;;18.97;9.23;;;6.40;99.90;;;;;;5045711;28;20198;-73
2020/12/03 00:52:24;;;;;;;20.27;9.90;;;6.40;99.90;;;;;;5048454;28;20202;-72
2020/12/03 00:54:50;;;;;;;16.20;10.70;;;6.30;99.90;;;;;;5048166;28;20198;-73
2020/12/03 00:57:17;;;;;;;18.30;10.20;;;6.40;99.90;;;;;;5049575;28;20199;-73
2020/12/03 00:59:44;;;;;;;18.87;10.60;;;6.30;99.90;;;;;;5049591;28;20710;-72
2020/12/03 01:02:13;;;;;;;17.73;10.33;;;6.30;99.90;;;;;;5048991;28;20207;-72
2020/12/03 01:04:41;;;;;;;20.00;11.37;;;6.30;99.90;;;;;;5049564;28;20226;-72
2020/12/03 01:07:08;;;;;;;17.20;10.23;;;6.30;99.90;;;;;;5047477;28;20234;-75
2020/12/03 01:09:36;;;;;;;15.50;10.60;;;6.30;99.90;;;;;;5046118;28;20203;-74
2020/12/03 01:12:04;;;;;;;24.37;12.27;;;6.30;99.90;;;;;;5048213;28;20268;-74
2020/12/03 01:14:34;;;;;;;22.47;12.57;;;6.30;99.90;;;;;;5043904;28;20208;-74
2020/12/03 01:17:01;;;;;;;17.60;12.27;;;6.30;99.90;;;;;;5043478;28;20289;-74
2020/12/03 01:19:28;;;;;;;18.30;12.53;;;6.30;99.90;;;;;;5046814;28;20210;-74
2020/12/03 01:21:56;;;;;;;19.77;12.17;;;6.30;99.90;;;;;;5047597;28;20207;-74
2020/12/03 01:24:22;;;;;;;18.17;12.40;;;6.30;99.90;;;;;;5051323;28;20231;-73
2020/12/03 01:26:49;;;;;;;20.50;12.67;;;6.40;99.90;;;;;;5048168;28;20200;-74
2020/12/03 01:29:17;;;;;;;20.17;12.67;;;6.40;99.90;;;;;;5051204;28;20204;-73
2020/12/03 01:31:43;;;;;;;19.20;13.17;;;6.30;99.90;;;;;;5055772;28;20202;-73
2020/12/03 01:34:10;;;;;;;20.70;13.57;;;6.30;99.90;;;;;;5060522;28;20777;-74
2020/12/03 01:36:37;;;;;;;22.63;13.67;;;6.30;99.90;;;;;;5061348;28;20204;-73
2020/12/03 01:39:05;;;;;;;27.13;14.83;;;6.30;99.90;;;;;;5059857;28;20203;-74
2020/12/03 01:41:32;;;;;;;21.50;15.53;;;6.30;99.90;;;;;;5047312;28;20207;-73
2020/12/03 01:43:59;;;;;;;21.67;14.83;;;6.30;99.90;;;;;;5061212;28;20205;-72
2020/12/03 01:46:26;;;;;;;25.17;16.30;;;6.30;99.90;;;;;;5053234;28;20209;-72
2020/12/03 01:48:55;;;;;;;22.73;15.27;;;6.30;99.90;;;;;;5048294;28;20210;-73
2020/12/03 01:51:25;;;;;;;26.77;15.87;;;6.30;99.90;;;;;;5053144;28;20206;-73
2020/12/03 01:53:53;;;;;;;23.90;15.73;;;6.30;99.90;;;;;;5053821;28;20200;-73
2020/12/03 01:56:45;;;;;;;28.83;17.33;;;6.30;99.90;;;;;;5047817;28;20736;-73
2020/12/03 01:59:13;;;;;;;27.60;17.37;;;6.30;99.90;;;;;;5052906;28;20206;-72
2020/12/03 02:01:40;;;;;;;25.63;17.73;;;6.30;99.90;;;;;;5051004;28;20206;-74
2020/12/03 02:04:07;;;;;;;30.90;18.13;;;6.30;99.90;;;;;;5050858;28;20648;-74
2020/12/03 02:06:36;;;;;;;26.80;17.93;;;6.30;99.90;;;;;;5050450;28;20227;-72
2020/12/03 02:09:04;;;;;;;27.90;19.13;;;6.30;99.90;;;;;;5050341;28;20199;-73
2020/12/03 02:11:33;;;;;;;31.30;19.37;;;6.30;99.90;;;;;;5050460;28;20195;-73
2020/12/03 02:14:01;;;;;;;32.60;19.13;;;6.40;99.90;;;;;;5050850;28;20560;-74
2020/12/03 02:16:31;;;;;;;29.73;18.07;;;6.40;99.90;;;;;;5052417;28;20203;-74
2020/12/03 02:18:57;;;;;;;24.60;17.90;;;6.30;99.90;;;;;;5053533;28;20201;-74
2020/12/03 02:21:25;;;;;;;26.90;18.83;;;6.30;99.90;;;;;;5049804;28;20225;-73
2020/12/03 02:23:52;;;;;;;27.97;18.87;;;6.40;99.90;;;;;;5051051;28;20361;-73
2020/12/03 02:26:19;;;;;;;31.63;20.10;;;6.40;99.90;;;;;;5050911;28;22073;-74
2020/12/03 02:28:46;;;;;;;26.10;20.03;;;6.40;99.90;;;;;;5052424;28;20199;-72
2020/12/03 02:31:12;;;;;;;30.63;19.70;;;6.40;99.90;;;;;;5051083;28;20200;-75
2020/12/03 02:33:39;;;;;;;33.60;20.57;;;6.40;99.90;;;;;;5047951;28;20219;-72
2020/12/03 02:36:06;;;;;;;27.13;20.20;;;6.40;99.90;;;;;;5056036;28;20207;-74
2020/12/03 02:38:33;;;;;;;26.97;19.90;;;6.50;99.90;;;;;;5053119;28;20207;-72
2020/12/03 02:41:01;;;;;;;30.50;20.20;;;6.50;99.90;;;;;;5050005;28;20774;-72
2020/12/03 02:43:28;;;;;;;28.10;21.17;;;6.50;99.90;;;;;;5051430;28;20199;-74
2020/12/03 02:45:55;;;;;;;26.77;19.17;;;6.50;99.90;;;;;;5053368;28;20218;-74
2020/12/03 02:48:22;;;;;;;29.73;20.20;;;6.50;99.90;;;;;;5054752;28;20206;-74
2020/12/03 02:50:50;;;;;;;29.50;20.63;;;6.50;99.90;;;;;;5049550;28;20211;-74
2020/12/03 02:53:17;;;;;;;35.10;21.97;;;6.50;99.90;;;;;;5053373;28;20199;-73
2020/12/03 02:55:44;;;;;;;27.57;20.67;;;6.50;99.90;;;;;;5049960;28;20213;-74
2020/12/03 02:58:11;;;;;;;28.50;20.93;;;6.50;99.90;;;;;;5049764;28;20222;-74
2020/12/03 03:00:38;;;;;;;25.90;20.23;;;6.50;99.90;;;;;;5050470;28;20204;-74
2020/12/03 03:03:04;;;;;;;28.20;20.13;;;6.50;99.90;;;;;;5053023;28;20960;-73
2020/12/03 03:05:31;;;;;;;24.60;19.87;;;6.50;99.90;;;;;;5049954;28;20975;-73
2020/12/03 03:07:57;;;;;;;27.40;20.70;;;6.50;99.90;;;;;;5048094;28;20246;-74
2020/12/03 03:10:24;;;;;;;25.00;18.27;;;6.50;99.90;;;;;;5051980;28;20199;-74
2020/12/03 03:12:52;;;;;;;25.07;19.00;;;6.50;99.90;;;;;;5047672;28;20358;-72
2020/12/03 03:15:19;;;;;;;27.10;19.40;;;6.50;99.90;;;;;;5052061;28;20230;-74
2020/12/03 03:17:46;;;;;;;24.53;17.97;;;6.50;99.90;;;;;;5049111;28;20211;-72
2020/12/03 03:20:13;;;;;;;27.13;19.00;;;6.50;99.90;;;;;;5049929;28;20199;-74
2020/12/03 03:22:41;;;;;;;22.57;18.30;;;6.60;99.90;;;;;;5050991;28;20672;-74
2020/12/03 03:25:08;;;;;;;26.20;19.63;;;6.60;99.90;;;;;;5050392;28;20230;-74
2020/12/03 03:27:35;;;;;;;25.57;18.57;;;6.60;99.90;;;;;;5049092;28;20203;-74
2020/12/03 03:30:04;;;;;;;24.50;18.33;;;6.60;99.90;;;;;;5049662;28;20195;-73
2020/12/03 03:32:30;;;;;;;25.33;17.87;;;6.60;99.90;;;;;;5048254;28;20204;-73
2020/12/03 03:34:57;;;;;;;23.03;17.60;;;6.60;99.90;;;;;;5047043;28;20211;-73
2020/12/03 03:37:24;;;;;;;26.20;18.00;;;6.60;99.90;;;;;;5052472;28;20469;-73
2020/12/03 03:39:51;;;;;;;29.90;18.40;;;6.60;99.90;;;;;;5051518;28;20206;-73
2020/12/03 03:42:17;;;;;;;27.70;18.53;;;6.60;99.90;;;;;;5049980;28;20196;-73
2020/12/03 03:44:44;;;;;;;25.67;18.70;;;6.60;99.90;;;;;;5050120;28;20226;-72
2020/12/03 03:47:12;;;;;;;25.47;19.30;;;6.60;99.90;;;;;;5048091;28;20209;-75
2020/12/03 03:49:38;;;;;;;26.90;18.70;;;6.60;99.90;;;;;;5052635;28;20493;-72
2020/12/03 03:52:05;;;;;;;26.50;18.73;;;6.60;99.90;;;;;;5047835;28;20206;-73
2020/12/03 03:54:32;;;;;;;29.23;20.03;;;6.60;99.90;;;;;;5051447;28;20210;-73
2020/12/03 03:56:58;;;;;;;29.03;20.23;;;6.60;99.90;;;;;;5051468;28;20683;-75
2020/12/03 03:59:25;;;;;;;28.43;19.80;;;6.60;99.90;;;;;;5052226;28;20195;-73
2020/12/03 04:01:52;;;;;;;35.27;22.17;;;6.60;99.90;;;;;;5048008;28;21110;-74
2020/12/03 04:04:19;;;;;;;33.83;21.73;;;6.50;99.90;;;;;;5055262;28;20198;-73
2020/12/03 04:06:47;;;;;;;27.93;20.63;;;6.50;99.90;;;;;;5072289;28;20231;-72
2020/12/03 04:09:14;;;;;;;33.17;19.93;;;6.50;99.90;;;;;;5069705;28;20199;-74
2020/12/03 04:11:43;;;;;;;35.67;21.40;;;6.50;99.90;;;;;;5070901;28;20206;-74
2020/12/03 04:14:09;;;;;;;31.77;21.20;;;6.50;99.90;;;;;;5055784;28;20203;-74
2020/12/03 04:16:36;;;;;;;31.53;21.17;;;6.60;99.90;;;;;;5055173;28;20214;-73
2020/12/03 04:19:03;;;;;;;32.47;21.67;;;6.60;99.90;;;;;;5055710;28;20199;-73
2020/12/03 04:21:30;;;;;;;32.97;20.67;;;6.60;99.90;;;;;;5058857;28;20202;-73
2020/12/03 04:23:57;;;;;;;34.43;22.30;;;6.50;99.90;;;;;;5058492;28;20199;-73
2020/12/03 04:26:24;;;;;;;35.60;23.57;;;6.60;99.90;;;;;;5059487;28;20241;-72
2020/12/03 04:28:50;;;;;;;33.37;22.73;;;6.60;99.90;;;;;;5058619;28;20210;-73
2020/12/03 04:31:17;;;;;;;30.43;21.77;;;6.60;99.90;;;;;;5058650;28;20199;-72
2020/12/03 04:33:43;;;;;;;32.77;22.17;;;6.60;99.90;;;;;;5058819;28;20668;-73
2020/12/03 04:36:10;;;;;;;34.17;22.50;;;6.50;99.90;;;;;;5056774;28;20691;-73
2020/12/03 04:38:37;;;;;;;34.90;21.67;;;6.50;99.90;;;;;;5058194;28;20199;-73
2020/12/03 04:41:04;;;;;;;36.87;22.13;;;6.50;99.90;;;;;;5057756;28;20205;-73
2020/12/03 04:43:35;;;;;;;34.40;22.90;;;6.50;99.90;;;;;;5064895;28;20206;-74
2020/12/03 04:46:15;;;;;;;36.30;23.23;;;6.50;99.90;;;;;;5072256;28;20215;-74
2020/12/03 04:49:23;;;;;;;36.20;22.93;;;6.50;99.90;;;;;;5071309;28;20195;-73
2020/12/03 04:52:34;;;;;;;38.57;24.47;;;6.50;99.90;;;;;;5059447;28;20551;-72
2020/12/03 04:55:25;;;;;;;35.07;23.30;;;6.50;99.90;;;;;;5040229;28;20195;-72
2020/12/03 04:58:04;;;;;;;35.57;24.17;;;6.50;99.90;;;;;;5055819;28;20203;-75
2020/12/03 05:00:41;;;;;;;38.87;24.57;;;6.50;99.90;;;;;;5052666;28;20187;-72
2020/12/03 05:03:27;;;;;;;38.87;23.50;;;6.50;99.90;;;;;;5056791;28;20201;-72
2020/12/03 05:06:04;;;;;;;35.77;24.50;;;6.50;99.90;;;;;;5052160;28;20714;-73
2020/12/03 05:08:38;;;;;;;37.63;24.53;;;6.50;99.90;;;;;;5056037;28;20234;-74
2020/12/03 05:11:17;;;;;;;40.80;23.90;;;6.60;99.90;;;;;;5058040;28;20667;-73
2020/12/03 05:13:49;;;;;;;37.93;24.70;;;6.60;99.90;;;;;;5050535;28;20202;-73
2020/12/03 05:16:21;;;;;;;39.80;26.40;;;6.60;99.90;;;;;;5050552;28;20200;-74
2020/12/03 05:18:54;;;;;;;36.80;23.43;;;6.60;99.90;;;;;;5053163;28;20187;-73
2020/12/03 05:21:25;;;;;;;37.53;24.83;;;6.60;99.90;;;;;;5050036;28;20199;-72
2020/12/03 05:23:51;;;;;;;40.63;24.37;;;6.60;99.90;;;;;;5050606;28;20203;-73
2020/12/03 05:26:21;;;;;;;39.63;23.90;;;6.50;99.90;;;;;;5054629;28;20219;-72
2020/12/03 05:28:53;;;;;;;37.67;24.93;;;6.60;99.90;;;;;;5052956;28;20199;-72
2020/12/03 05:31:34;;;;;;;35.17;24.83;;;6.60;99.90;;;;;;5060670;28;20194;-73
2020/12/03 05:34:13;;;;;;;37.47;24.53;;;6.60;99.90;;;;;;5060131;28;20190;-72
2020/12/03 05:36:42;;;;;;;40.50;26.80;;;6.50;99.90;;;;;;5061703;28;20196;-74
2020/12/03 05:39:13;;;;;;;37.50;25.00;;;6.50;99.90;;;;;;5061066;28;20209;-74
2020/12/03 05:41:46;;;;;;;35.90;24.37;;;6.50;99.90;;;;;;5062360;28;20261;-73
2020/12/03 05:44:34;;;;;;;36.60;24.83;;;6.50;99.90;;;;;;5062101;28;20199;-74
2020/12/03 05:47:01;;;;;;;35.80;25.17;;;6.50;99.90;;;;;;5061646;28;20191;-74
2020/12/03 05:49:29;;;;;;;32.77;23.70;;;6.50;99.90;;;;;;5061224;28;20199;-73
2020/12/03 05:52:12;;;;;;;36.70;24.37;;;6.50;99.90;;;;;;5060915;28;20203;-74
2020/12/03 05:54:39;;;;;;;35.47;23.50;;;6.50;99.90;;;;;;5061826;28;20195;-72
2020/12/03 05:57:21;;;;;;;37.13;23.83;;;6.50;99.90;;;;;;5057483;28;20226;-72
2020/12/03 05:59:50;;;;;;;34.70;24.20;;;6.50;99.90;;;;;;5052841;28;20199;-72
2020/12/03 06:02:28;;;;;;;33.27;23.20;;;6.50;99.90;;;;;;5055590;28;20198;-72
2020/12/03 06:05:10;;;;;;;37.10;25.17;;;6.50;99.90;;;;;;5048674;28;20707;-70
2020/12/03 06:07:49;;;;;;;33.87;22.17;;;6.50;99.90;;;;;;5056136;28;20234;-71
2020/12/03 06:10:30;;;;;;;31.77;22.40;;;6.50;99.90;;;;;;5059728;28;20191;-72
2020/12/03 06:13:19;;;;;;;31.17;21.63;;;6.50;99.90;;;;;;5060043;28;20202;-74
2020/12/03 06:15:49;;;;;;;32.67;22.00;;;6.50;99.90;;;;;;5061377;28;20219;-70
2020/12/03 06:18:36;;;;;;;29.63;20.87;;;6.50;99.90;;;;;;5060141;28;20198;-73
2020/12/03 06:21:19;;;;;;;28.40;20.73;;;6.50;99.90;;;;;;5061885;28;22828;-70
2020/12/03 06:24:14;;;;;;;26.27;20.40;;;6.50;99.90;;;;;;5056843;28;20207;-70
2020/12/03 06:27:00;;;;;;;27.50;20.13;;;6.50;99.90;;;;;;5046785;28;20230;-69
2020/12/03 06:29:58;;;;;;;29.40;20.63;;;6.50;99.90;;;;;;5049911;28;20203;-73
2020/12/03 06:32:42;;;;;;;25.47;18.20;;;6.50;99.90;;;;;;5049947;28;20218;-71
2020/12/03 06:35:22;;;;;;;27.63;19.70;;;6.50;99.90;;;;;;5051012;28;20200;-71
2020/12/03 06:37:57;;;;;;;28.43;20.77;;;6.50;99.90;;;;;;5051563;28;20198;-70
2020/12/03 06:40:26;;;;;;;27.67;19.67;;;6.50;99.90;;;;;;5057784;28;20202;-72
2020/12/03 06:42:57;;;;;;;26.10;19.13;;;6.50;99.90;;;;;;5060339;28;20208;-71
2020/12/03 06:45:32;;;;;;;25.93;19.47;;;6.50;99.90;;;;;;5059710;28;20288;-70
2020/12/03 06:48:17;;;;;;;26.17;19.07;;;6.50;99.90;;;;;;5060328;28;20226;-69
2020/12/03 06:51:18;;;;;;;27.80;21.37;;;6.50;99.90;;;;;;5060227;28;20195;-70
2020/12/03 06:54:20;;;;;;;29.47;20.53;;;6.50;99.90;;;;;;5060433;28;20205;-69
2020/12/03 06:57:26;;;;;;;27.03;18.90;;;6.50;99.90;;;;;;5059152;28;20214;-73
2020/12/03 07:00:39;;;;;;;30.40;20.53;;;6.50;99.90;;;;;;5059579;28;20200;-72
2020/12/03 07:03:49;;;;;;;30.53;21.47;;;6.50;99.90;;;;;;5060958;28;20614;-71
2020/12/03 07:07:03;;;;;;;31.40;21.20;;;6.50;99.90;;;;;;5059203;28;20230;-72
2020/12/03 07:10:12;;;;;;;33.23;20.87;;;6.50;99.90;;;;;;4997837;28;20200;-72
2020/12/03 07:13:14;;;;;;;31.33;20.73;;;6.50;99.90;;;;;;4988014;28;20268;-73
2020/12/03 07:16:23;;;;;;;30.53;20.57;;;6.50;99.90;;;;;;5056415;28;20758;-71
2020/12/03 07:19:47;;;;;;;30.27;21.23;;;6.50;99.90;;;;;;5061384;28;20187;-73
2020/12/03 07:22:16;;;;;;;29.33;21.13;;;6.50;99.90;;;;;;5011573;28;20201;-73
2020/12/03 07:24:46;;;;;;;30.33;20.33;;;6.50;99.90;;;;;;5011481;28;20193;-71
2020/12/03 07:27:52;;;;;;;31.13;21.67;;;6.50;99.90;;;;;;5044343;28;22587;-72
2020/12/03 07:30:38;;;;;;;25.87;17.90;;;6.50;99.90;;;;;;5058602;28;20282;-73
2020/12/03 07:33:15;;;;;;;28.73;20.43;;;6.50;99.90;;;;;;5060297;28;20196;-73
2020/12/03 07:35:48;;;;;;;28.70;20.90;;;6.50;99.90;;;;;;5059128;28;20600;-72
2020/12/03 07:38:24;;;;;;;31.17;20.07;;;6.50;99.90;;;;;;5058326;28;20206;-71
2020/12/03 07:40:52;;;;;;;29.77;20.83;;;6.50;99.90;;;;;;5058300;28;20201;-73
2020/12/03 07:43:21;;;;;;;27.97;19.83;;;6.50;99.90;;;;;;5056660;28;22181;-71
2020/12/03 07:45:49;;;;;;;28.90;19.60;;;6.50;99.90;;;;;;5059611;28;20237;-68
2020/12/03 07:48:21;;;;;;;29.57;18.60;;;6.50;99.90;;;;;;5056465;28;20615;-70
2020/12/03 07:51:10;;;;;;;30.33;20.40;;;6.50;99.90;;;;;;5056442;28;20194;-70
2020/12/03 07:53:37;;;;;;;32.37;18.87;;;6.50;99.90;;;;;;5053133;28;20659;-70
2020/12/03 07:56:31;;;;;;;29.07;19.87;;;6.50;99.90;;;;;;5057493;28;20221;-71
2020/12/03 07:59:28;;;;;;;28.97;19.70;;;6.50;99.90;;;;;;5062209;28;20205;-71
2020/12/03 08:01:56;;;;;;;25.70;18.13;;;6.50;99.90;;;;;;5059313;28;20286;-70
2020/12/03 08:04:30;;;;;;;26.20;19.17;;;6.50;99.90;;;;;;5062006;28;20297;-70
2020/12/03 08:07:23;;;;;;;24.17;18.60;;;6.50;99.90;;;;;;5057962;28;20828;-72
2020/12/03 08:09:49;;;;;;;25.60;18.23;;;6.50;99.90;;;;;;5057030;28;20618;-73
2020/12/03 08:12:17;;;;;;;27.17;18.80;;;6.50;99.90;;;;;;5055775;28;20199;-72
2020/12/03 08:14:46;;;;;;;26.53;19.23;;;6.50;99.90;;;;;;5057144;28;20210;-72
2020/12/03 08:17:35;;;;;;;23.80;17.60;;;6.50;99.90;;;;;;5059003;28;20214;-71
2020/12/03 08:20:18;;;;;;;24.27;18.20;;;6.50;99.90;;;;;;5049310;28;20630;-71
2020/12/03 08:22:48;;;;;;;24.63;18.57;;;6.50;99.90;;;;;;5047788;28;20921;-70
2020/12/03 08:25:17;;;;;;;24.87;18.33;;;6.50;99.90;;;;;;5049117;28;20678;-71
2020/12/03 08:27:50;;;;;;;24.73;19.50;;;6.50;99.90;;;;;;5047173;28;20214;-71
2020/12/03 08:30:35;;;;;;;27.30;19.77;;;6.50;99.90;;;;;;5050528;28;20195;-70
2020/12/03 08:33:10;;;;;;;23.23;17.47;;;6.50;99.90;;;;;;5057732;28;20215;-70
2020/12/03 08:35:38;;;;;;;26.40;19.07;;;6.60;99.90;;;;;;5057809;28;20209;-71
2020/12/03 08:38:05;;;;;;;23.53;17.77;;;6.60;99.90;;;;;;5057585;28;20205;-71
2020/12/03 08:40:34;;;;;;;25.40;18.73;;;6.60;99.90;;;;;;5061601;28;20191;-70
2020/12/03 08:43:03;;;;;;;22.70;17.40;;;6.60;99.90;;;;;;5052456;28;20195;-69
2020/12/03 08:45:39;;;;;;;24.63;18.80;;;6.60;99.90;;;;;;5052871;28;20216;-70
2020/12/03 08:48:09;;;;;;;25.40;18.27;;;6.60;99.90;;;;;;5054070;28;20293;-70
2020/12/03 08:50:37;;;;;;;25.70;19.23;;;6.60;99.90;;;;;;5055526;28;20202;-70
2020/12/03 08:53:08;;;;;;;29.60;19.83;;;6.60;99.90;;;;;;5045612;28;20203;-70
2020/12/03 08:55:38;;;;;;;26.90;20.03;;;6.60;99.90;;;;;;5047029;28;20191;-68
2020/12/03 08:58:06;;;;;;;31.30;21.20;;;6.60;99.90;;;;;;5048367;28;20683;-71
2020/12/03 09:00:37;;;;;;;27.97;19.80;;;6.60;99.90;;;;;;5048943;28;20217;-71
2020/12/03 09:03:05;;;;;;;30.30;20.40;;;6.60;99.90;;;;;;5046832;28;20200;-71
2020/12/03 09:05:33;;;;;;;30.53;20.60;;;6.60;99.90;;;;;;5045513;28;20262;-70
2020/12/03 09:08:00;;;;;;;29.47;20.50;;;6.60;99.90;;;;;;5049013;28;20263;-69
2020/12/03 09:10:27;;;;;;;32.80;21.57;;;6.60;99.90;;;;;;5057995;28;20214;-68
2020/12/03 09:12:53;;;;;;;31.47;20.87;;;6.60;99.90;;;;;;5054032;28;20245;-70
2020/12/03 09:15:21;;;;;;;28.87;20.13;;;6.60;99.90;;;;;;5056588;28;20294;-70
2020/12/03 09:17:54;;;;;;;31.30;22.30;;;6.60;99.90;;;;;;5064443;28;20199;-71
2020/12/03 09:20:21;;;;;;;32.37;22.10;;;6.60;99.90;;;;;;5066478;28;20652;-71
2020/12/03 09:22:48;;;;;;;31.53;21.10;;;6.60;99.90;;;;;;5060019;28;20199;-71
2020/12/03 09:25:15;;;;;;;31.97;21.30;;;6.70;99.90;;;;;;5057585;28;20227;-71
2020/12/03 09:27:43;;;;;;;30.17;20.73;;;6.60;99.90;;;;;;5057246;28;20203;-72
2020/12/03 09:30:17;;;;;;;32.40;20.90;;;6.70;99.90;;;;;;5058409;28;20293;-71
2020/12/03 09:32:47;;;;;;;31.97;21.50;;;6.70;99.90;;;;;;5058181;28;20657;-71
2020/12/03 09:35:15;;;;;;;32.43;21.27;;;6.70;99.90;;;;;;5057471;28;20215;-72
2020/12/03 09:37:42;;;;;;;32.23;20.37;;;6.80;99.90;;;;;;5063464;28;20206;-72
2020/12/03 09:40:10;;;;;;;29.70;20.53;;;6.80;99.90;;;;;;5062697;28;20952;-71
2020/12/03 09:42:44;;;;;;;29.40;21.13;;;6.90;99.90;;;;;;5063279;28;20195;-71
2020/12/03 09:45:17;;;;;;;32.30;21.27;;;6.90;99.90;;;;;;5061546;28;20309;-72
2020/12/03 09:47:44;;;;;;;30.83;20.03;;;6.90;99.90;;;;;;5061265;28;20207;-72
2020/12/03 09:50:13;;;;;;;34.80;21.43;;;7.00;99.90;;;;;;5054632;28;20207;-70
2020/12/03 09:52:42;;;;;;;32.90;21.17;;;7.00;99.90;;;;;;5054988;28;20284;-70
2020/12/03 09:55:12;;;;;;;31.43;21.37;;;7.00;99.90;;;;;;5059751;28;20680;-70
2020/12/03 09:57:39;;;;;;;30.20;20.70;;;7.00;99.90;;;;;;5056725;28;20206;-70
2020/12/03 10:00:08;;;;;;;37.17;23.37;;;7.00;99.90;;;;;;5060077;28;20569;-71
2020/12/03 10:03:16;;;;;;;30.07;20.07;;;7.10;99.90;;;;;;5057369;28;20249;-70
2020/12/03 10:06:00;;;;;;;33.27;20.97;;;7.10;99.90;;;;;;5056342;28;20254;-71
2020/12/03 10:08:38;;;;;;;31.60;20.93;;;7.00;99.90;;;;;;5057439;28;20597;-72
2020/12/03 10:11:19;;;;;;;32.83;21.87;;;7.00;99.90;;;;;;5060234;28;20199;-73
2020/12/03 10:14:10;;;;;;;35.80;22.50;;;6.90;99.90;;;;;;5056604;28;20194;-69
2020/12/03 10:16:41;;;;;;;33.27;21.07;;;7.00;99.90;;;;;;5058863;28;20199;-71
2020/12/03 10:19:11;;;;;;;37.93;21.50;;;6.90;99.90;;;;;;5063069;28;20673;-72
2020/12/03 10:21:42;;;;;;;32.60;21.50;;;6.90;99.90;;;;;;5063163;28;20211;-70
2020/12/03 10:24:13;;;;;;;34.00;20.37;;;6.90;99.90;;;;;;5064852;28;20611;-71
2020/12/03 10:26:49;;;;;;;32.83;20.40;;;6.90;99.90;;;;;;5065998;28;20224;-74
2020/12/03 10:29:41;;;;;;;34.30;20.40;;;6.90;99.90;;;;;;5066291;28;20682;-72
2020/12/03 10:32:11;;;;;;;33.00;20.93;;;7.00;99.90;;;;;;5061940;28;20645;-70
2020/12/03 10:34:40;;;;;;;31.67;19.70;;;7.00;99.90;;;;;;5055563;28;20203;-72
2020/12/03 10:37:19;;;;;;;27.20;18.80;;;6.90;99.90;;;;;;5057222;28;20203;-72
2020/12/03 10:39:51;;;;;;;30.63;18.80;;;7.00;99.90;;;;;;5060379;28;20207;-70
2020/12/03 10:42:22;;;;;;;29.93;19.37;;;6.90;99.90;;;;;;5056514;28;20203;-72
2020/12/03 10:44:54;;;;;;;31.93;18.87;;;6.90;99.90;;;;;;5056219;28;20187;-75
2020/12/03 10:47:23;;;;;;;29.57;18.70;;;6.90;99.90;;;;;;5053155;28;20692;-74
2020/12/03 10:49:51;;;;;;;31.80;19.30;;;7.00;99.90;;;;;;5057636;28;20196;-74
2020/12/03 10:52:25;;;;;;;27.53;17.37;;;6.90;99.90;;;;;;5057558;28;20230;-72
2020/12/03 10:54:59;;;;;;;30.77;18.03;;;7.00;99.90;;;;;;5058782;28;20198;-70
2020/12/03 10:57:27;;;;;;;28.73;17.83;;;7.00;99.90;;;;;;5054932;28;20664;-71
2020/12/03 10:59:55;;;;;;;25.03;17.00;;;7.00;99.90;;;;;;5052750;28;20199;-72
2020/12/03 11:02:27;;;;;;;26.90;17.77;;;7.10;99.90;;;;;;5053552;28;20566;-72
2020/12/03 11:04:55;;;;;;;28.03;17.77;;;7.10;99.90;;;;;;5051841;28;20202;-73
2020/12/03 11:07:21;;;;;;;31.73;18.80;;;7.10;99.90;;;;;;5052217;28;20268;-72
2020/12/03 11:09:52;;;;;;;24.73;16.80;;;7.10;99.90;;;;;;5054667;28;20289;-73
2020/12/03 11:12:19;;;;;;;24.13;16.63;;;7.20;99.90;;;;;;5052264;28;20203;-74
2020/12/03 11:14:47;;;;;;;28.90;15.87;;;7.20;99.90;;;;;;5058851;28;20209;-74
2020/12/03 11:17:32;;;;;;;25.97;16.80;;;7.20;99.90;;;;;;5057199;28;20294;-74
2020/12/03 11:20:01;;;;;;;22.07;16.33;;;7.30;99.90;;;;;;5059502;28;20702;-75
2020/12/03 11:22:52;;;;;;;26.23;16.17;;;7.30;99.90;;;;;;5059899;28;20203;-74
2020/12/03 11:25:19;;;;;;;25.67;15.17;;;7.30;99.90;;;;;;5058595;28;20191;-75
2020/12/03 11:27:46;;;;;;;22.13;14.50;;;7.30;99.90;;;;;;5058258;28;20194;-72
2020/12/03 11:30:15;;;;;;;21.87;15.87;;;7.30;99.90;;;;;;5058933;28;20695;-72
2020/12/03 11:32:46;;;;;;;24.47;15.03;;;7.40;99.90;;;;;;5056428;28;20214;-72
2020/12/03 11:35:23;;;;;;;21.27;15.47;;;7.40;99.90;;;;;;5053641;28;20196;-72
2020/12/03 11:37:52;;;;;;;21.00;15.17;;;7.50;99.90;;;;;;5057163;28;20210;-75
2020/12/03 11:40:27;;;;;;;22.80;14.37;;;7.50;99.90;;;;;;5059448;28;20199;-71
2020/12/03 11:43:02;;;;;;;18.27;13.83;;;7.50;99.90;;;;;;5059157;28;20429;-72
2020/12/03 11:45:57;;;;;;;20.27;14.57;;;7.50;99.90;;;;;;5057612;28;20210;-72
2020/12/03 11:48:37;;;;;;;22.53;14.10;;;7.40;99.90;;;;;;5056288;28;20297;-72
2020/12/03 11:51:03;;;;;;;24.97;15.23;;;7.40;99.90;;;;;;5052893;28;20202;-69
2020/12/03 11:53:31;;;;;;;19.70;15.20;;;7.30;99.90;;;;;;5053568;28;20201;-72
2020/12/03 11:55:58;;;;;;;21.00;14.80;;;7.30;99.90;;;;;;5053322;28;20191;-72
2020/12/03 11:58:30;;;;;;;18.37;13.27;;;7.20;99.90;;;;;;5054362;28;20207;-70
2020/12/03 12:01:11;;;;;;;19.20;13.17;;;7.20;99.90;;;;;;5055734;28;20207;-76
2020/12/03 12:03:39;;;;;;;19.27;14.80;;;7.10;99.90;;;;;;5065597;28;20237;-71
2020/12/03 12:06:12;;;;;;;24.47;14.33;;;7.10;99.90;;;;;;5053555;28;20234;-71
2020/12/03 12:08:43;;;;;;;21.73;14.30;;;7.10;99.90;;;;;;5052848;28;20262;-71
2020/12/03 12:11:14;;;;;;;17.33;13.70;;;7.10;99.90;;;;;;5052879;28;20200;-71
2020/12/03 12:13:41;;;;;;;21.63;13.10;;;7.00;99.90;;;;;;5052557;28;20670;-70
2020/12/03 12:16:12;;;;;;;19.63;13.20;;;7.00;99.90;;;;;;5058988;28;20214;-70
2020/12/03 12:18:39;;;;;;;19.60;13.70;;;7.00;99.90;;;;;;5055482;28;20231;-71
2020/12/03 12:21:08;;;;;;;19.07;12.50;;;6.90;99.90;;;;;;5051199;28;20652;-69
2020/12/03 12:23:35;;;;;;;20.33;13.50;;;6.90;99.90;;;;;;5052430;28;20230;-73
2020/12/03 12:26:02;;;;;;;19.23;12.77;;;7.00;99.90;;;;;;5051634;28;20237;-69
2020/12/03 12:28:29;;;;;;;20.33;12.13;;;7.00;99.90;;;;;;5051071;28;20195;-69
2020/12/03 12:30:55;;;;;;;16.77;11.77;;;6.90;99.90;;;;;;5054142;28;20563;-71
2020/12/03 12:33:23;;;;;;;16.17;11.30;;;6.90;99.90;;;;;;5057266;28;20206;-70
2020/12/03 12:35:49;;;;;;;17.63;12.67;;;6.90;99.90;;;;;;5055815;28;20206;-72
2020/12/03 12:38:16;;;;;;;13.27;11.67;;;6.90;99.90;;;;;;5059516;28;20222;-73
2020/12/03 12:40:42;;;;;;;16.40;11.80;;;6.90;99.90;;;;;;5057067;28;20225;-72
2020/12/03 12:43:09;;;;;;;14.33;10.40;;;6.90;99.90;;;;;;5055865;28;20200;-74
2020/12/03 12:45:35;;;;;;;14.37;10.13;;;6.80;99.90;;;;;;5056170;28;20238;-70
2020/12/03 12:48:02;;;;;;;13.53;9.10;;;6.80;99.90;;;;;;5054953;28;20208;-74
2020/12/03 12:50:29;;;;;;;15.73;10.07;;;6.80;99.90;;;;;;5057426;28;20553;-72
2020/12/03 12:52:56;;;;;;;13.53;10.10;;;6.80;99.90;;;;;;5058399;28;20932;-70
2020/12/03 12:55:23;;;;;;;13.03;9.20;;;6.80;99.90;;;;;;5065900;28;20205;-72
2020/12/03 12:57:49;;;;;;;12.90;9.70;;;6.80;99.90;;;;;;5071907;28;20202;-73
2020/12/03 13:00:16;;;;;;;19.10;10.00;;;6.80;99.90;;;;;;5071698;28;20195;-71
2020/12/03 13:02:42;;;;;;;12.27;10.03;;;6.80;99.90;;;;;;5066954;28;20203;-69
2020/12/03 13:05:09;;;;;;;17.17;10.53;;;6.80;99.90;;;;;;5052858;28;21218;-71